createdAt,value
2023-04-16T00:02:21.739Z,7.33
2023-04-16T00:04:49.203Z,7.40
2023-04-16T00:07:16.527Z,7.47
2023-04-16T00:09:44.084Z,7.47
2023-04-16T00:12:11.362Z,8.07
2023-04-16T00:14:38.711Z,9.33
2023-04-16T00:17:06.107Z,9.97
2023-04-16T00:19:33.405Z,9.40
2023-04-16T00:22:00.883Z,8.53
2023-04-16T00:24:28.144Z,8.10
2023-04-16T00:26:56.284Z,10.17
2023-04-16T00:29:23.863Z,12.00
2023-04-16T00:31:51.855Z,10.63
2023-04-16T00:34:19.289Z,8.20
2023-04-16T00:36:46.659Z,8.13
2023-04-16T00:39:14.112Z,7.70
2023-04-16T00:41:46.684Z,7.63
2023-04-16T00:44:13.929Z,7.47
2023-04-16T00:46:42.358Z,7.13
2023-04-16T00:49:10.833Z,6.63
2023-04-16T00:51:38.496Z,7.17
2023-04-16T00:54:07.277Z,7.23
2023-04-16T00:56:36.954Z,7.37
2023-04-16T00:59:04.814Z,6.53
2023-04-16T01:01:32.148Z,6.90
2023-04-16T01:03:59.776Z,6.70
2023-04-16T01:06:28.220Z,6.07
2023-04-16T01:08:55.729Z,6.90
2023-04-16T01:11:23.006Z,6.87
2023-04-16T01:13:50.512Z,6.33
2023-04-16T01:16:17.810Z,6.47
2023-04-16T01:18:45.206Z,6.33
2023-04-16T01:21:12.516Z,6.50
2023-04-16T01:23:39.810Z,7.33
2023-04-16T01:26:07.310Z,8.53
2023-04-16T01:28:34.576Z,9.00
2023-04-16T01:31:01.907Z,18.43
2023-04-16T01:33:29.533Z,10.73
2023-04-16T01:35:56.955Z,8.53
2023-04-16T01:38:24.278Z,9.90
2023-04-16T01:40:57.897Z,9.50
2023-04-16T01:43:25.298Z,8.23
2023-04-16T01:45:59.880Z,8.53
2023-04-16T01:48:27.097Z,9.00
2023-04-16T01:50:54.388Z,7.63
2023-04-16T01:53:21.660Z,7.93
2023-04-16T01:55:48.984Z,9.03
2023-04-16T01:58:16.270Z,9.27
2023-04-16T02:00:43.931Z,8.90
2023-04-16T02:03:11.454Z,7.83
2023-04-16T02:05:38.782Z,7.33
2023-04-16T02:08:06.528Z,8.60
2023-04-16T02:10:33.756Z,8.20
2023-04-16T02:13:00.977Z,7.60
2023-04-16T02:15:28.375Z,8.57
2023-04-16T02:17:57.297Z,7.40
2023-04-16T02:20:24.745Z,7.87
2023-04-16T02:22:52.171Z,7.90
2023-04-16T02:25:19.471Z,8.17
2023-04-16T02:27:46.744Z,8.40
2023-04-16T02:30:14.238Z,7.97
2023-04-16T02:32:41.803Z,8.70
2023-04-16T02:35:09.209Z,16.27
2023-04-16T02:37:36.492Z,15.07
2023-04-16T02:40:03.776Z,14.00
2023-04-16T02:42:31.089Z,14.13
2023-04-16T02:44:58.340Z,13.23
2023-04-16T02:47:25.614Z,14.63
2023-04-16T02:49:52.943Z,14.20
2023-04-16T02:52:20.400Z,12.83
2023-04-16T02:54:47.855Z,11.97
2023-04-16T02:57:15.137Z,9.00
2023-04-16T02:59:42.356Z,8.93
2023-04-16T03:02:09.654Z,9.00
2023-04-16T03:04:37.131Z,10.73
2023-04-16T03:07:04.446Z,11.53
2023-04-16T03:09:32.221Z,9.67
2023-04-16T03:11:59.418Z,9.00
2023-04-16T03:14:26.622Z,9.50
2023-04-16T03:16:54.145Z,9.57
2023-04-16T03:19:21.434Z,11.17
2023-04-16T03:21:48.762Z,23.03
2023-04-16T03:24:16.186Z,24.63
2023-04-16T03:26:43.561Z,20.00
2023-04-16T03:29:11.123Z,17.27
2023-04-16T03:31:38.760Z,13.17
2023-04-16T03:34:06.422Z,10.87
2023-04-16T03:36:33.721Z,10.63
2023-04-16T03:39:01.331Z,11.60
2023-04-16T03:41:28.649Z,12.10
2023-04-16T03:43:55.898Z,12.07
2023-04-16T03:46:23.308Z,13.30
2023-04-16T03:48:50.756Z,12.50
2023-04-16T03:51:17.981Z,10.77
2023-04-16T03:53:45.217Z,11.40
2023-04-16T03:56:12.653Z,11.33
2023-04-16T03:58:39.891Z,11.50
2023-04-16T04:01:07.275Z,11.70
2023-04-16T04:03:34.818Z,11.23
2023-04-16T04:06:02.202Z,11.77
2023-04-16T04:08:29.954Z,11.27
2023-04-16T04:10:57.267Z,12.40
2023-04-16T04:13:24.538Z,10.77
2023-04-16T04:15:52.081Z,10.57
2023-04-16T04:18:19.486Z,11.33
2023-04-16T04:20:46.800Z,14.67
2023-04-16T04:23:14.067Z,13.13
2023-04-16T04:25:41.333Z,12.00
2023-04-16T04:28:08.769Z,12.87
2023-04-16T04:30:36.718Z,14.50
2023-04-16T04:33:04.188Z,12.90
2023-04-16T04:35:31.527Z,13.87
2023-04-16T04:37:58.811Z,13.37
2023-04-16T04:40:26.337Z,14.40
2023-04-16T04:42:53.605Z,12.97
2023-04-16T04:45:21.868Z,12.50
2023-04-16T04:47:49.701Z,12.03
2023-04-16T04:50:17.175Z,12.43
2023-04-16T04:52:44.485Z,12.17
2023-04-16T04:55:12.542Z,13.80
2023-04-16T04:57:40.147Z,13.63
2023-04-16T05:00:08.381Z,12.43
2023-04-16T05:02:35.738Z,15.17
2023-04-16T05:05:03.865Z,13.73
2023-04-16T05:07:34.308Z,14.63
2023-04-16T05:10:01.926Z,13.37
2023-04-16T05:12:29.203Z,13.33
2023-04-16T05:14:56.651Z,14.10
2023-04-16T05:17:24.168Z,14.50
2023-04-16T05:19:51.713Z,13.83
2023-04-16T05:22:19.255Z,13.57
2023-04-16T05:24:46.554Z,14.60
2023-04-16T05:27:13.874Z,14.33
2023-04-16T05:29:41.167Z,14.00
2023-04-16T05:32:08.523Z,13.53
2023-04-16T05:34:35.966Z,15.13
2023-04-16T05:37:03.274Z,14.97
2023-04-16T05:39:30.899Z,16.03
2023-04-16T05:41:58.319Z,15.43
2023-04-16T05:44:26.138Z,15.03
2023-04-16T05:46:53.585Z,16.47
2023-04-16T05:49:21.703Z,15.90
2023-04-16T05:51:50.895Z,15.23
2023-04-16T05:54:18.514Z,15.50
2023-04-16T05:56:45.895Z,15.70
2023-04-16T05:59:13.832Z,15.60
2023-04-16T06:01:44.367Z,17.53
2023-04-16T06:04:20.989Z,16.70
2023-04-16T06:06:48.380Z,16.53
2023-04-16T06:09:15.752Z,16.57
2023-04-16T06:11:43.362Z,17.17
2023-04-16T06:14:11.158Z,17.03
2023-04-16T06:16:38.548Z,17.57
2023-04-16T06:19:06.057Z,16.97
2023-04-16T06:21:33.766Z,17.60
2023-04-16T06:24:01.947Z,18.37
2023-04-16T06:26:29.292Z,16.30
2023-04-16T06:28:57.548Z,17.87
2023-04-16T06:31:25.158Z,18.03
2023-04-16T06:33:52.530Z,18.50
2023-04-16T06:36:19.885Z,19.10
2023-04-16T06:38:47.302Z,19.90
2023-04-16T06:41:15.340Z,19.23
2023-04-16T06:43:42.869Z,20.27
2023-04-16T06:46:10.148Z,20.43
2023-04-16T06:48:37.487Z,19.47
2023-04-16T06:51:05.022Z,19.57
2023-04-16T06:53:32.394Z,19.47
2023-04-16T06:55:59.658Z,19.90
2023-04-16T06:58:27.724Z,20.63
2023-04-16T07:00:55.444Z,20.77
2023-04-16T07:03:25.866Z,21.97
2023-04-16T07:05:53.177Z,22.30
2023-04-16T07:08:20.538Z,21.07
2023-04-16T07:10:47.990Z,22.43
2023-04-16T07:13:15.371Z,28.40
2023-04-16T07:15:42.741Z,22.63
2023-04-16T07:18:10.132Z,24.63
2023-04-16T07:20:37.611Z,22.50
2023-04-16T07:23:05.000Z,23.57
2023-04-16T07:25:32.431Z,21.60
2023-04-16T07:28:00.230Z,21.37
2023-04-16T07:30:33.077Z,23.67
2023-04-16T07:33:01.867Z,24.10
2023-04-16T07:35:29.428Z,26.03
2023-04-16T07:37:56.738Z,25.53
2023-04-16T07:40:24.824Z,25.67
2023-04-16T07:42:52.441Z,27.03
2023-04-16T07:45:19.827Z,27.33
2023-04-16T07:47:47.459Z,27.50
2023-04-16T07:50:15.132Z,27.80
2023-04-16T07:52:44.054Z,25.80
2023-04-16T07:55:11.411Z,25.70
2023-04-16T07:57:38.663Z,27.53
2023-04-16T08:00:07.420Z,27.23
2023-04-16T08:02:35.043Z,24.83
2023-04-16T08:05:02.648Z,24.13
2023-04-16T08:07:30.313Z,24.60
2023-04-16T08:09:58.095Z,24.13
2023-04-16T08:12:25.387Z,24.30
2023-04-16T08:14:52.783Z,24.77
2023-04-16T08:17:20.221Z,24.80
2023-04-16T08:19:47.654Z,23.43
2023-04-16T08:22:15.166Z,25.63
2023-04-16T08:24:42.513Z,25.90
2023-04-16T08:27:19.244Z,22.73
2023-04-16T08:29:48.429Z,22.53
2023-04-16T08:32:15.950Z,23.30
2023-04-16T08:34:43.623Z,21.60
2023-04-16T08:37:12.456Z,20.43
2023-04-16T08:39:40.093Z,22.00
2023-04-16T08:42:18.221Z,20.67
2023-04-16T08:44:50.246Z,20.77
2023-04-16T08:47:18.158Z,20.47
2023-04-16T08:49:49.048Z,20.20
2023-04-16T08:52:20.509Z,19.87
2023-04-16T08:55:12.861Z,21.37
2023-04-16T08:57:48.928Z,19.43
2023-04-16T09:00:17.097Z,17.57
2023-04-16T09:02:44.761Z,18.77
2023-04-16T09:05:17.523Z,17.77
2023-04-16T09:07:50.020Z,16.23
2023-04-16T09:10:21.692Z,14.07
2023-04-16T09:12:48.934Z,14.37
2023-04-16T09:15:16.302Z,15.10
2023-04-16T09:17:44.013Z,15.40
2023-04-16T09:20:12.807Z,14.40
2023-04-16T09:22:43.152Z,13.83
2023-04-16T09:25:11.406Z,14.63
2023-04-16T09:27:39.071Z,12.07
2023-04-16T09:30:26.550Z,10.93
2023-04-16T09:33:23.063Z,11.77
2023-04-16T09:35:52.483Z,11.80
2023-04-16T09:38:20.973Z,10.03
2023-04-16T09:40:48.565Z,10.33
2023-04-16T09:43:19.407Z,9.83
2023-04-16T09:45:54.034Z,9.37
2023-04-16T09:48:31.471Z,10.23
2023-04-16T09:51:00.337Z,9.33
2023-04-16T09:53:32.158Z,9.57
2023-04-16T09:56:06.997Z,8.67
2023-04-16T09:58:38.418Z,8.23
2023-04-16T10:01:11.481Z,8.52
2023-04-16T10:03:40.492Z,8.50
2023-04-16T10:06:21.498Z,7.18
2023-04-16T10:08:50.384Z,15.93
2023-04-16T10:11:19.301Z,36.53
2023-04-16T10:13:47.031Z,10.45
2023-04-16T10:16:14.731Z,7.40
2023-04-16T10:18:43.890Z,6.22
2023-04-16T10:21:15.685Z,6.88
2023-04-16T10:23:44.836Z,6.70
2023-04-16T10:26:12.305Z,7.05
2023-04-16T10:28:41.135Z,6.30
2023-04-16T10:31:09.840Z,6.38
2023-04-16T10:33:42.380Z,5.25
2023-04-16T10:36:14.484Z,5.20
2023-04-16T10:38:55.274Z,4.90
2023-04-16T10:41:22.907Z,4.82
2023-04-16T10:43:51.545Z,5.10
2023-04-16T10:46:38.960Z,4.80
2023-04-16T10:49:27.443Z,5.40
2023-04-16T10:52:00.310Z,5.40
2023-04-16T10:54:31.920Z,5.33
2023-04-16T10:57:07.873Z,5.87
2023-04-16T10:59:40.032Z,6.00
2023-04-16T11:02:10.146Z,6.13
2023-04-16T11:04:39.622Z,5.47
2023-04-16T11:07:15.945Z,5.70
2023-04-16T11:10:00.569Z,5.60
2023-04-16T11:12:33.127Z,4.80
2023-04-16T11:15:11.180Z,4.53
2023-04-16T11:17:50.854Z,4.03
2023-04-16T11:20:22.506Z,4.43
2023-04-16T11:22:51.812Z,5.10
2023-04-16T11:25:34.431Z,4.53
2023-04-16T11:28:02.851Z,4.33
2023-04-16T11:30:35.305Z,5.00
2023-04-16T11:33:08.045Z,4.03
2023-04-16T11:35:35.721Z,3.70
2023-04-16T11:38:03.005Z,3.50
2023-04-16T11:40:32.442Z,3.77
2023-04-16T11:43:04.511Z,4.10
2023-04-16T11:45:32.199Z,3.50
2023-04-16T11:47:59.596Z,3.90
2023-04-16T11:50:28.530Z,3.75
2023-04-16T11:53:03.611Z,3.67
2023-04-16T11:55:31.524Z,3.30
2023-04-16T11:58:11.375Z,3.63
2023-04-16T12:00:39.442Z,3.60
2023-04-16T12:03:06.859Z,3.22
2023-04-16T12:05:35.467Z,3.38
2023-04-16T12:08:04.672Z,3.47
2023-04-16T12:10:37.562Z,3.10
2023-04-16T12:13:15.957Z,3.72
2023-04-16T12:15:51.434Z,15.20
2023-04-16T12:18:20.867Z,4.40
2023-04-16T12:20:48.506Z,3.08
2023-04-16T12:23:30.614Z,2.90
2023-04-16T12:26:03.011Z,2.80
2023-04-16T12:28:36.377Z,3.40
2023-04-16T12:31:04.618Z,2.77
2023-04-16T12:33:32.377Z,3.17
2023-04-16T12:36:16.958Z,2.70
2023-04-16T12:38:44.250Z,3.30
2023-04-16T12:41:11.697Z,3.03
2023-04-16T12:43:39.011Z,3.38
2023-04-16T12:46:07.069Z,3.35
2023-04-16T12:48:34.868Z,3.40
2023-04-16T12:51:02.608Z,6.80
2023-04-16T12:53:30.075Z,11.27
2023-04-16T12:55:57.374Z,3.17
2023-04-16T12:58:24.724Z,4.83
2023-04-16T13:00:52.341Z,3.90
2023-04-16T13:03:21.286Z,3.27
2023-04-16T13:05:48.857Z,3.37
2023-04-16T13:08:16.776Z,4.27
2023-04-16T13:10:44.284Z,4.73
2023-04-16T13:13:11.649Z,5.13
2023-04-16T13:15:39.103Z,9.70
2023-04-16T13:18:06.694Z,3.47
2023-04-16T13:20:34.245Z,3.43
2023-04-16T13:23:01.517Z,3.20
2023-04-16T13:25:30.077Z,3.30
2023-04-16T13:27:57.624Z,3.80
2023-04-16T13:30:25.807Z,3.67
2023-04-16T13:32:53.274Z,3.43
2023-04-16T13:35:20.704Z,3.60
2023-04-16T13:37:48.648Z,3.23
2023-04-16T13:40:16.052Z,3.87
2023-04-16T13:42:43.754Z,2.93
2023-04-16T13:45:11.702Z,3.10
2023-04-16T13:47:43.869Z,3.30
2023-04-16T13:50:11.822Z,3.53
2023-04-16T13:52:39.037Z,3.53
2023-04-16T13:55:06.926Z,3.53
2023-04-16T13:57:34.261Z,3.33
2023-04-16T14:00:01.823Z,3.70
2023-04-16T14:02:29.270Z,3.63
2023-04-16T14:04:57.269Z,3.70
2023-04-16T14:07:27.343Z,3.83
2023-04-16T14:09:55.113Z,4.23
2023-04-16T14:12:22.511Z,3.83
2023-04-16T14:14:50.038Z,3.40
2023-04-16T14:17:17.359Z,3.67
2023-04-16T14:19:44.663Z,4.10
2023-04-16T14:22:12.062Z,3.97
2023-04-16T14:24:39.381Z,3.90
2023-04-16T14:27:06.664Z,3.70
2023-04-16T14:29:33.981Z,3.77
2023-04-16T14:32:01.752Z,3.97
2023-04-16T14:34:29.161Z,4.20
2023-04-16T14:36:57.072Z,4.17
2023-04-16T14:39:25.308Z,4.00
2023-04-16T14:41:52.664Z,4.00
2023-04-16T14:44:23.816Z,3.90
2023-04-16T14:46:51.253Z,4.00
2023-04-16T14:49:18.641Z,3.83
2023-04-16T14:51:47.100Z,4.20
2023-04-16T14:54:14.458Z,4.30
2023-04-16T14:56:42.283Z,3.63
2023-04-16T14:59:10.545Z,3.83
2023-04-16T15:01:40.066Z,4.17
2023-04-16T15:04:07.834Z,3.80
2023-04-16T15:06:36.164Z,4.00
2023-04-16T15:09:04.328Z,4.30
2023-04-16T15:11:31.987Z,3.87
2023-04-16T15:13:59.416Z,4.13
2023-04-16T15:16:26.866Z,3.60
2023-04-16T15:18:54.514Z,3.70
2023-04-16T15:21:22.242Z,4.03
2023-04-16T15:23:49.705Z,3.70
2023-04-16T15:26:17.142Z,5.47
2023-04-16T15:28:44.986Z,5.10
2023-04-16T15:31:13.247Z,4.33
2023-04-16T15:33:40.828Z,4.40
2023-04-16T15:36:08.181Z,4.40
2023-04-16T15:38:35.483Z,5.70
2023-04-16T15:41:03.933Z,8.03
2023-04-16T15:43:31.614Z,6.50
2023-04-16T15:45:58.989Z,9.23
2023-04-16T15:48:26.369Z,7.27
2023-04-16T15:50:54.613Z,8.60
2023-04-16T15:53:22.001Z,11.10
2023-04-16T15:55:53.944Z,7.03
2023-04-16T15:58:21.977Z,7.10
2023-04-16T16:00:51.126Z,8.17
2023-04-16T16:03:19.147Z,9.23
2023-04-16T16:05:48.770Z,6.03
2023-04-16T16:08:17.059Z,5.73
2023-04-16T16:10:44.449Z,6.37
2023-04-16T16:13:14.327Z,9.77
2023-04-16T16:15:42.548Z,14.37
2023-04-16T16:18:10.303Z,16.73
2023-04-16T16:20:37.762Z,18.27
2023-04-16T16:23:05.293Z,26.90
2023-04-16T16:25:32.591Z,28.23
2023-04-16T16:28:01.882Z,12.73
2023-04-16T16:30:30.336Z,32.10
2023-04-16T16:32:58.095Z,21.77
2023-04-16T16:35:26.577Z,19.30
2023-04-16T16:37:57.517Z,39.37
2023-04-16T16:40:24.878Z,35.27
2023-04-16T16:42:52.386Z,28.60
2023-04-16T16:45:19.963Z,22.33
2023-04-16T16:47:47.864Z,15.07
2023-04-16T16:50:16.467Z,13.13
2023-04-16T16:52:45.243Z,10.47
2023-04-16T16:55:12.784Z,13.37
2023-04-16T16:57:40.349Z,9.40
2023-04-16T17:00:12.025Z,8.23
2023-04-16T17:02:39.777Z,8.50
2023-04-16T17:05:08.067Z,16.07
2023-04-16T17:07:35.595Z,13.20
2023-04-16T17:10:06.039Z,22.43
2023-04-16T17:12:33.995Z,20.57
2023-04-16T17:15:01.311Z,14.97
2023-04-16T17:17:29.452Z,10.03
2023-04-16T17:19:56.771Z,7.70
2023-04-16T17:22:24.109Z,9.43
2023-04-16T17:24:51.387Z,8.37
2023-04-16T17:27:18.820Z,8.23
2023-04-16T17:29:46.178Z,9.67
2023-04-16T17:32:13.537Z,10.33
2023-04-16T17:34:40.973Z,11.07
2023-04-16T17:37:08.208Z,11.40
2023-04-16T17:39:35.427Z,10.23
2023-04-16T17:42:04.316Z,9.30
2023-04-16T17:44:31.874Z,9.60
2023-04-16T17:46:59.243Z,10.23
2023-04-16T17:49:26.977Z,11.50
2023-04-16T17:51:54.699Z,10.27
2023-04-16T17:54:21.949Z,13.23
2023-04-16T17:56:49.305Z,19.50
2023-04-16T17:59:16.762Z,12.47
2023-04-16T18:01:45.168Z,12.33
2023-04-16T18:04:13.519Z,4.80
2023-04-16T18:06:41.205Z,4.50
2023-04-16T18:09:08.850Z,5.43
2023-04-16T18:11:36.255Z,6.07
2023-04-16T18:14:03.987Z,12.57
2023-04-16T18:16:31.525Z,55.80
2023-04-16T18:18:59.430Z,39.73
2023-04-16T18:21:27.793Z,104.80
2023-04-16T18:23:55.460Z,91.60
2023-04-16T18:26:23.194Z,66.30
2023-04-16T18:28:50.630Z,75.33
2023-04-16T18:31:20.834Z,67.73
2023-04-16T18:33:57.585Z,75.40
2023-04-16T18:36:27.068Z,84.13
2023-04-16T18:39:02.138Z,143.37
2023-04-16T18:41:31.547Z,117.43
2023-04-16T18:43:59.087Z,81.07
2023-04-16T18:46:27.728Z,81.97
2023-04-16T18:48:55.672Z,73.63
2023-04-16T18:51:23.005Z,65.23
2023-04-16T18:53:50.902Z,68.20
2023-04-16T18:56:18.708Z,60.50
2023-04-16T18:58:46.055Z,38.47
2023-04-16T19:01:14.215Z,27.90
2023-04-16T19:03:41.613Z,16.90
2023-04-16T19:06:09.290Z,15.97
2023-04-16T19:08:36.948Z,17.67
2023-04-16T19:11:04.283Z,24.57
2023-04-16T19:13:32.656Z,34.90
2023-04-16T19:16:02.042Z,30.40
2023-04-16T19:18:29.423Z,32.10
2023-04-16T19:21:01.072Z,30.80
2023-04-16T19:23:29.169Z,21.47
2023-04-16T19:25:58.318Z,20.50
2023-04-16T19:28:27.228Z,10.63
2023-04-16T19:30:56.877Z,6.87
2023-04-16T19:33:24.353Z,5.97
2023-04-16T19:35:52.302Z,5.47
2023-04-16T19:38:20.190Z,6.83
2023-04-16T19:40:49.309Z,7.00
2023-04-16T19:43:17.018Z,7.30
2023-04-16T19:45:48.626Z,8.13
2023-04-16T19:48:16.039Z,8.90
2023-04-16T19:50:44.155Z,9.60
2023-04-16T19:53:12.309Z,9.17
2023-04-16T19:55:40.301Z,8.90
2023-04-16T19:58:08.283Z,7.10
2023-04-16T20:00:38.317Z,6.07
2023-04-16T20:03:06.532Z,5.63
2023-04-16T20:05:33.904Z,6.43
2023-04-16T20:08:01.348Z,5.50
2023-04-16T20:10:29.632Z,5.13
2023-04-16T20:12:56.973Z,4.73
2023-04-16T20:15:24.443Z,5.33
2023-04-16T20:17:52.578Z,4.90
2023-04-16T20:20:20.196Z,5.37
2023-04-16T20:22:47.538Z,5.30
2023-04-16T20:25:19.191Z,5.70
2023-04-16T20:27:46.751Z,5.57
2023-04-16T20:30:14.470Z,6.00
2023-04-16T20:32:41.724Z,5.47
2023-04-16T20:35:11.673Z,5.70
2023-04-16T20:37:39.497Z,5.53
2023-04-16T20:40:08.975Z,5.93
2023-04-16T20:42:36.495Z,5.40
2023-04-16T20:45:04.126Z,5.77
2023-04-16T20:47:31.329Z,5.40
2023-04-16T20:50:01.974Z,5.67
2023-04-16T20:52:29.345Z,6.23
2023-04-16T20:54:56.797Z,5.97
2023-04-16T20:57:24.095Z,5.93
2023-04-16T20:59:51.822Z,6.00
2023-04-16T21:02:20.463Z,5.47
2023-04-16T21:04:47.944Z,5.67
2023-04-16T21:07:15.820Z,5.90
2023-04-16T21:09:43.630Z,5.73
2023-04-16T21:12:11.183Z,5.80
2023-04-16T21:14:38.476Z,5.93
2023-04-16T21:17:05.862Z,5.57
2023-04-16T21:19:33.336Z,5.93
2023-04-16T21:22:02.753Z,5.50
2023-04-16T21:24:31.864Z,6.50
2023-04-16T21:26:59.106Z,6.40
2023-04-16T21:29:26.437Z,6.17
2023-04-16T21:31:54.392Z,6.43
2023-04-16T21:34:21.661Z,7.00
2023-04-16T21:36:48.894Z,7.30
2023-04-16T21:39:17.831Z,7.17
2023-04-16T21:41:45.033Z,7.70
2023-04-16T21:44:12.316Z,7.80
2023-04-16T21:46:39.612Z,7.43
2023-04-16T21:49:07.071Z,7.33
2023-04-16T21:51:34.308Z,7.70
2023-04-16T21:54:01.637Z,8.37
2023-04-16T21:56:28.867Z,11.93
2023-04-16T21:58:56.338Z,9.67
2023-04-16T22:01:24.387Z,9.17
2023-04-16T22:03:52.430Z,9.10
2023-04-16T22:06:20.724Z,9.17
2023-04-16T22:08:50.329Z,12.43
2023-04-16T22:11:21.008Z,11.33
2023-04-16T22:13:48.547Z,13.93
2023-04-16T22:16:16.000Z,14.67
2023-04-16T22:18:43.529Z,12.97
2023-04-16T22:21:11.680Z,13.80
2023-04-16T22:23:39.054Z,14.33
2023-04-16T22:26:06.510Z,13.77
2023-04-16T22:28:33.813Z,12.77
2023-04-16T22:31:01.154Z,12.23
2023-04-16T22:33:31.848Z,12.57
2023-04-16T22:36:00.995Z,12.37
2023-04-16T22:38:28.290Z,14.90
2023-04-16T22:40:56.320Z,16.57
2023-04-16T22:43:23.736Z,15.10
2023-04-16T22:46:00.651Z,14.07
2023-04-16T22:48:28.338Z,13.17
2023-04-16T22:50:55.654Z,14.47
2023-04-16T22:53:23.216Z,13.53
2023-04-16T22:55:50.486Z,13.37
2023-04-16T22:58:17.869Z,11.87
2023-04-16T23:00:45.566Z,10.37
2023-04-16T23:03:12.810Z,10.57
2023-04-16T23:05:40.486Z,10.30
2023-04-16T23:08:07.853Z,10.43
2023-04-16T23:10:35.268Z,9.30
2023-04-16T23:13:02.771Z,10.10
2023-04-16T23:15:30.182Z,10.67
2023-04-16T23:17:57.517Z,12.60
2023-04-16T23:20:25.187Z,13.23
2023-04-16T23:22:53.396Z,15.10
2023-04-16T23:25:22.671Z,15.20
2023-04-16T23:27:50.020Z,14.43
2023-04-16T23:30:17.421Z,17.60
2023-04-16T23:32:44.796Z,16.73
2023-04-16T23:35:12.185Z,12.30
2023-04-16T23:37:39.516Z,11.83
2023-04-16T23:40:08.530Z,12.37
2023-04-16T23:42:35.822Z,15.00
2023-04-16T23:45:03.143Z,15.40
2023-04-16T23:47:30.457Z,40.47
2023-04-16T23:49:58.053Z,42.07
2023-04-16T23:52:25.487Z,39.33
2023-04-16T23:54:53.172Z,33.63
2023-04-16T23:57:20.542Z,29.53
2023-04-16T23:59:47.836Z,26.47
